Time;durP1;ratioP1;P1;durP2;ratioP2;P2;SDS_P1;SDS_P2;PMS_P1;PMS_P2;Temp;Humidity;BMP_temperature;BMP_pressure;BME280_temperature;BME280_humidity;BME280_pressure;Samples;Min_cycle;Max_cycle;Signal;HPM_P1;HPM_P2
2023/06/06 00:02:10;;;;;;;2.10;1.70;;;20.50;99.90;;;;;;7393588;19;20602;-75
2023/06/06 00:04:37;;;;;;;2.13;1.80;;;20.50;99.90;;;;;;7395638;19;20159;-76
2023/06/06 00:07:04;;;;;;;1.90;1.80;;;20.50;99.90;;;;;;7394080;19;20145;-76
2023/06/06 00:09:31;;;;;;;3.80;1.60;;;20.30;99.90;;;;;;7394174;19;21052;-76
2023/06/06 00:11:57;;;;;;;2.88;1.70;;;20.30;99.90;;;;;;7395846;19;20237;-76
2023/06/06 00:14:24;;;;;;;2.42;1.67;;;20.20;99.90;;;;;;7394403;19;20138;-75
2023/06/06 00:16:51;;;;;;;1.77;1.27;;;20.20;99.90;;;;;;7391248;19;20134;-76
2023/06/06 00:19:20;;;;;;;1.77;1.50;;;20.30;99.90;;;;;;7393690;19;20142;-77
2023/06/06 00:21:46;;;;;;;2.17;1.77;;;20.10;99.90;;;;;;7381256;19;20134;-76
2023/06/06 00:24:12;;;;;;;2.97;1.67;;;20.20;99.90;;;;;;7384507;19;20149;-76
2023/06/06 00:26:38;;;;;;;5.40;1.48;;;20.10;99.90;;;;;;7390837;19;20135;-76
2023/06/06 00:29:04;;;;;;;1.45;1.30;;;20.00;99.90;;;;;;7391815;19;20135;-75
2023/06/06 00:31:33;;;;;;;4.78;1.60;;;19.90;99.90;;;;;;7393569;19;20224;-75
2023/06/06 00:33:59;;;;;;;2.47;1.75;;;19.70;99.90;;;;;;7393241;19;20753;-75
2023/06/06 00:36:25;;;;;;;2.00;1.67;;;19.70;99.90;;;;;;7392107;19;20198;-75
2023/06/06 00:38:51;;;;;;;2.88;1.60;;;19.70;99.90;;;;;;7389765;19;20167;-76
2023/06/06 00:41:16;;;;;;;1.55;1.20;;;19.60;99.90;;;;;;7389897;19;20161;-76
2023/06/06 00:43:43;;;;;;;2.10;1.77;;;19.50;99.90;;;;;;7392779;19;20150;-76
2023/06/06 00:46:10;;;;;;;4.32;1.50;;;19.10;99.90;;;;;;7389933;19;20139;-76
2023/06/06 00:48:36;;;;;;;3.58;1.52;;;19.30;99.90;;;;;;7392703;19;20138;-75
2023/06/06 00:51:02;;;;;;;1.50;1.40;;;19.50;99.90;;;;;;7386686;19;20158;-76
2023/06/06 00:53:28;;;;;;;2.58;1.58;;;19.20;99.90;;;;;;7392983;19;20610;-75
2023/06/06 00:55:54;;;;;;;2.35;1.40;;;18.90;99.90;;;;;;7390108;19;20174;-75
2023/06/06 00:58:20;;;;;;;2.17;1.70;;;18.80;99.90;;;;;;7392458;19;20131;-75
2023/06/06 01:01:11;;;;;;;1.70;1.60;;;18.90;99.90;;;;;;7389781;19;20127;-75
2023/06/06 01:03:40;;;;;;;4.38;1.50;;;19.20;99.90;;;;;;7391301;19;20168;-76
2023/06/06 01:06:08;;;;;;;3.20;1.70;;;19.40;99.90;;;;;;7387250;19;20156;-75
2023/06/06 01:08:35;;;;;;;2.80;1.98;;;19.50;99.90;;;;;;7393333;19;20586;-75
2023/06/06 01:11:10;;;;;;;2.78;1.75;;;19.50;99.90;;;;;;7388487;19;20153;-77
2023/06/06 01:13:52;;;;;;;2.40;1.75;;;19.60;99.90;;;;;;7393351;19;20618;-76
2023/06/06 01:16:19;;;;;;;1.85;1.50;;;19.60;99.90;;;;;;7391478;19;20131;-76
2023/06/06 01:18:48;;;;;;;1.80;1.50;;;19.70;99.90;;;;;;7391798;19;20194;-76
2023/06/06 01:21:15;;;;;;;1.73;1.55;;;19.40;99.90;;;;;;7388449;19;20142;-76
2023/06/06 01:23:43;;;;;;;1.92;1.58;;;19.50;99.90;;;;;;7390337;19;20149;-74
2023/06/06 01:26:10;;;;;;;2.05;1.50;;;19.50;99.90;;;;;;7391089;19;20139;-75
2023/06/06 01:28:36;;;;;;;1.95;1.38;;;19.40;99.90;;;;;;7392338;19;20135;-75
2023/06/06 01:31:03;;;;;;;5.13;2.00;;;19.40;99.90;;;;;;7391824;19;20151;-76
2023/06/06 01:33:47;;;;;;;1.88;1.55;;;19.30;99.90;;;;;;7390261;19;20535;-76
2023/06/06 01:36:13;;;;;;;4.25;2.00;;;19.40;99.90;;;;;;7390226;19;20130;-76
2023/06/06 01:38:45;;;;;;;2.05;1.45;;;18.80;99.90;;;;;;7392838;19;20589;-75
2023/06/06 01:41:16;;;;;;;2.67;1.70;;;18.50;99.90;;;;;;7390273;19;20495;-76
2023/06/06 01:43:45;;;;;;;2.03;1.67;;;18.20;99.90;;;;;;7388999;19;20177;-75
2023/06/06 01:46:12;;;;;;;1.40;1.30;;;18.40;99.90;;;;;;7390673;19;20190;-76
2023/06/06 01:48:38;;;;;;;2.13;1.80;;;18.40;99.90;;;;;;7390327;19;20138;-76
2023/06/06 01:51:05;;;;;;;2.63;1.80;;;18.80;99.90;;;;;;7390565;19;20173;-75
2023/06/06 01:53:31;;;;;;;2.53;2.00;;;19.00;99.90;;;;;;7389173;19;20161;-76
2023/06/06 01:55:58;;;;;;;2.17;1.70;;;18.90;99.90;;;;;;7393119;19;20152;-75
2023/06/06 01:58:24;;;;;;;2.15;1.77;;;18.90;99.90;;;;;;7391507;19;20138;-76
2023/06/06 02:00:50;;;;;;;2.55;1.90;;;19.10;99.90;;;;;;7388012;19;20151;-76
2023/06/06 02:03:15;;;;;;;2.60;1.73;;;19.20;99.90;;;;;;7391193;19;20145;-76
2023/06/06 02:05:41;;;;;;;2.00;1.67;;;19.20;99.90;;;;;;7393897;19;20146;-77
2023/06/06 02:08:07;;;;;;;4.72;2.42;;;19.20;99.90;;;;;;7391245;19;20617;-75
2023/06/06 02:10:33;;;;;;;2.70;1.92;;;19.30;99.90;;;;;;7391274;19;20138;-76
2023/06/06 02:12:58;;;;;;;3.88;1.83;;;19.20;99.90;;;;;;7389986;19;20870;-76
2023/06/06 02:15:26;;;;;;;1.90;1.70;;;19.10;99.90;;;;;;7390650;19;20146;-76
2023/06/06 02:17:53;;;;;;;1.85;1.48;;;18.60;99.90;;;;;;7389755;19;20143;-75
2023/06/06 02:20:18;;;;;;;3.03;1.65;;;18.30;99.90;;;;;;7389138;19;20595;-75
2023/06/06 02:22:44;;;;;;;2.70;1.70;;;18.50;99.90;;;;;;7390611;19;20137;-76
2023/06/06 02:25:13;;;;;;;3.20;1.83;;;18.60;99.90;;;;;;7390928;19;20147;-76
2023/06/06 02:27:43;;;;;;;2.38;1.88;;;18.80;99.90;;;;;;7391526;19;20130;-76
2023/06/06 02:30:10;;;;;;;2.50;2.00;;;18.70;99.90;;;;;;7389432;19;20516;-76
2023/06/06 02:32:35;;;;;;;1.83;1.55;;;18.70;99.90;;;;;;7390607;19;20162;-76
2023/06/06 02:35:03;;;;;;;4.95;2.00;;;18.80;99.90;;;;;;7391621;19;20262;-76
2023/06/06 02:37:30;;;;;;;2.70;1.75;;;18.50;99.90;;;;;;7390558;19;20225;-76
2023/06/06 02:39:56;;;;;;;2.50;1.73;;;18.50;99.90;;;;;;7389901;19;20123;-76
2023/06/06 02:42:22;;;;;;;3.38;1.90;;;18.50;99.90;;;;;;7390235;19;20186;-76
2023/06/06 02:44:48;;;;;;;2.65;1.95;;;18.70;99.90;;;;;;7393633;19;20127;-74
2023/06/06 02:47:13;;;;;;;2.80;2.03;;;18.70;99.90;;;;;;7391560;19;20921;-75
2023/06/06 02:49:39;;;;;;;2.25;1.92;;;18.60;99.90;;;;;;7395505;19;20160;-76
2023/06/06 02:52:06;;;;;;;1.95;1.73;;;18.60;99.90;;;;;;7393377;19;20940;-75
2023/06/06 02:54:33;;;;;;;3.75;2.08;;;18.60;99.90;;;;;;7399244;19;20151;-76
2023/06/06 02:57:00;;;;;;;2.65;2.00;;;18.50;99.90;;;;;;7396201;19;20638;-74
2023/06/06 02:59:26;;;;;;;3.28;1.80;;;18.70;99.90;;;;;;7394385;19;20490;-74
2023/06/06 03:01:52;;;;;;;3.53;1.90;;;18.70;99.90;;;;;;7393758;19;20141;-75
2023/06/06 03:04:18;;;;;;;4.05;2.20;;;18.70;99.90;;;;;;7394568;19;20127;-75
2023/06/06 03:06:43;;;;;;;3.15;2.00;;;18.80;99.90;;;;;;7392980;19;20146;-76
2023/06/06 03:09:09;;;;;;;3.30;1.92;;;18.80;99.90;;;;;;7393341;19;20137;-76
2023/06/06 03:11:35;;;;;;;2.83;2.25;;;18.40;99.90;;;;;;7389746;19;20138;-76
2023/06/06 03:14:07;;;;;;;2.78;2.10;;;18.40;99.90;;;;;;7388427;19;20175;-75
2023/06/06 03:16:34;;;;;;;4.45;1.88;;;18.50;99.90;;;;;;7390546;19;20593;-75
2023/06/06 03:19:00;;;;;;;4.07;1.95;;;18.70;99.90;;;;;;7389778;19;20146;-76
2023/06/06 03:21:26;;;;;;;3.88;2.40;;;18.80;99.90;;;;;;7388339;19;20130;-74
2023/06/06 03:23:53;;;;;;;2.72;2.00;;;18.50;99.90;;;;;;7388553;19;20528;-75
2023/06/06 03:26:26;;;;;;;2.03;1.83;;;18.20;99.90;;;;;;7389724;19;20133;-75
2023/06/06 03:28:52;;;;;;;2.53;1.98;;;18.40;99.90;;;;;;7384517;19;20122;-76
2023/06/06 03:31:23;;;;;;;2.58;2.20;;;18.50;99.90;;;;;;7385034;19;20492;-76
2023/06/06 03:33:50;;;;;;;2.42;2.08;;;18.30;99.90;;;;;;7386621;19;20198;-76
2023/06/06 03:36:16;;;;;;;2.53;1.92;;;18.30;99.90;;;;;;7388556;19;20134;-76
2023/06/06 03:38:42;;;;;;;2.65;2.05;;;18.40;99.90;;;;;;7386371;19;20160;-76
2023/06/06 03:41:08;;;;;;;2.15;1.95;;;18.40;99.90;;;;;;7385495;19;20142;-76
2023/06/06 03:43:35;;;;;;;4.45;2.25;;;18.50;99.90;;;;;;7384986;19;20178;-76
2023/06/06 03:46:01;;;;;;;2.40;2.20;;;18.60;99.90;;;;;;7387622;19;20146;-75
2023/06/06 03:48:27;;;;;;;2.15;1.95;;;18.40;99.90;;;;;;7387236;19;20165;-75
2023/06/06 03:50:52;;;;;;;3.10;2.17;;;18.40;99.90;;;;;;7386908;19;20190;-75
2023/06/06 03:53:18;;;;;;;3.70;2.15;;;18.30;99.90;;;;;;7386675;19;20134;-76
2023/06/06 03:55:44;;;;;;;4.57;2.20;;;18.40;99.90;;;;;;7387283;19;20138;-75
2023/06/06 03:58:13;;;;;;;3.95;2.30;;;18.40;99.90;;;;;;7386280;19;20146;-76
2023/06/06 04:00:39;;;;;;;2.78;2.17;;;18.50;99.90;;;;;;7384993;19;20135;-76
2023/06/06 04:03:06;;;;;;;2.80;2.20;;;18.30;99.90;;;;;;7384054;19;20142;-76
2023/06/06 04:05:32;;;;;;;2.85;2.22;;;18.30;99.90;;;;;;7387956;19;20134;-76
2023/06/06 04:08:01;;;;;;;2.40;1.95;;;18.50;99.90;;;;;;7385145;19;20457;-77
2023/06/06 04:10:27;;;;;;;4.53;2.38;;;18.40;99.90;;;;;;7386848;19;20141;-77
2023/06/06 04:12:53;;;;;;;4.05;2.30;;;18.40;99.90;;;;;;7385758;19;20138;-77
2023/06/06 04:15:18;;;;;;;3.85;1.85;;;18.30;99.90;;;;;;7384330;19;20210;-77
2023/06/06 04:17:45;;;;;;;2.92;2.22;;;18.40;99.90;;;;;;7385655;19;20134;-76
2023/06/06 04:20:11;;;;;;;3.42;2.40;;;18.40;99.90;;;;;;7385887;19;20127;-77
2023/06/06 04:22:38;;;;;;;3.63;2.15;;;18.30;99.90;;;;;;7387521;19;20127;-76
2023/06/06 04:25:05;;;;;;;2.40;1.95;;;18.20;99.90;;;;;;7386428;19;20134;-77
2023/06/06 04:27:31;;;;;;;4.90;2.40;;;18.30;99.90;;;;;;7385138;19;20431;-76
2023/06/06 04:30:01;;;;;;;2.67;2.20;;;18.40;99.90;;;;;;7387037;19;20146;-77
2023/06/06 04:32:26;;;;;;;3.15;2.45;;;18.50;99.90;;;;;;7384392;19;20619;-75
2023/06/06 04:34:57;;;;;;;4.95;2.50;;;18.40;99.90;;;;;;7385220;19;20130;-75
2023/06/06 04:37:24;;;;;;;2.78;2.38;;;18.60;99.90;;;;;;7384742;19;20571;-76
2023/06/06 04:39:52;;;;;;;4.03;3.08;;;18.70;99.90;;;;;;7383507;19;20146;-76
2023/06/06 04:42:23;;;;;;;3.17;2.60;;;18.60;99.90;;;;;;7390880;19;20474;-77
2023/06/06 04:44:49;;;;;;;4.15;2.72;;;18.70;99.90;;;;;;7392783;19;20155;-78
2023/06/06 04:47:19;;;;;;;3.63;2.63;;;18.70;99.90;;;;;;7392237;19;20141;-77
2023/06/06 04:49:46;;;;;;;3.85;2.40;;;18.70;99.90;;;;;;7392905;19;20127;-77
2023/06/06 04:52:14;;;;;;;3.03;2.55;;;18.70;99.90;;;;;;7390691;19;20583;-76
2023/06/06 04:54:40;;;;;;;3.40;2.30;;;18.70;99.90;;;;;;7391753;19;20134;-77
2023/06/06 04:57:15;;;;;;;4.65;2.60;;;18.70;99.90;;;;;;7393100;19;20145;-77
2023/06/06 04:59:47;;;;;;;2.97;2.60;;;18.70;99.90;;;;;;7389889;19;20126;-77
2023/06/06 05:02:13;;;;;;;3.03;2.40;;;18.70;99.90;;;;;;7394108;19;20579;-78
2023/06/06 05:04:40;;;;;;;4.78;2.97;;;18.80;99.90;;;;;;7391607;19;20171;-76
2023/06/06 05:07:07;;;;;;;4.30;2.58;;;18.90;99.90;;;;;;7392740;19;20834;-76
2023/06/06 05:09:33;;;;;;;2.88;2.45;;;18.90;99.90;;;;;;7391392;19;20199;-77
2023/06/06 05:11:59;;;;;;;3.20;2.90;;;18.80;99.90;;;;;;7388472;19;20141;-76
2023/06/06 05:14:25;;;;;;;3.65;2.67;;;18.90;99.90;;;;;;7391509;19;20131;-76
2023/06/06 05:16:54;;;;;;;4.35;2.70;;;18.80;99.90;;;;;;7389761;19;20194;-77
2023/06/06 05:19:21;;;;;;;3.97;3.05;;;18.80;99.90;;;;;;7391660;19;20164;-78
2023/06/06 05:21:47;;;;;;;4.32;2.90;;;18.90;99.90;;;;;;7388847;19;20130;-75
2023/06/06 05:24:14;;;;;;;2.90;2.58;;;18.80;99.90;;;;;;7390246;19;20510;-77
2023/06/06 05:26:41;;;;;;;2.90;2.28;;;18.90;99.90;;;;;;7394098;19;20138;-78
2023/06/06 05:29:07;;;;;;;3.22;2.50;;;18.90;99.90;;;;;;7388736;19;20238;-78
2023/06/06 05:31:33;;;;;;;4.70;2.75;;;18.90;99.90;;;;;;7389487;19;20614;-77
2023/06/06 05:34:00;;;;;;;3.42;2.33;;;18.80;99.90;;;;;;7388664;19;20130;-78
2023/06/06 05:36:26;;;;;;;4.43;2.60;;;18.90;99.90;;;;;;7391090;19;20134;-78
2023/06/06 05:38:52;;;;;;;3.08;2.20;;;18.90;99.90;;;;;;7389715;19;20138;-79
2023/06/06 05:41:20;;;;;;;2.97;2.60;;;18.90;99.90;;;;;;7387532;19;20138;-79
2023/06/06 05:43:50;;;;;;;5.25;2.70;;;19.00;99.90;;;;;;7389285;19;20145;-78
2023/06/06 05:46:16;;;;;;;5.97;2.80;;;19.00;99.90;;;;;;7389013;19;20150;-78
2023/06/06 05:48:42;;;;;;;3.95;3.17;;;19.10;99.90;;;;;;7389954;19;20218;-78
2023/06/06 05:51:08;;;;;;;5.07;2.78;;;19.10;99.90;;;;;;7388758;19;20151;-79
2023/06/06 05:53:34;;;;;;;4.28;2.42;;;19.20;99.90;;;;;;7389319;19;20804;-79
2023/06/06 05:56:00;;;;;;;4.63;2.90;;;19.30;99.90;;;;;;7391788;19;20126;-78
2023/06/06 05:58:28;;;;;;;4.45;2.45;;;19.20;99.90;;;;;;7390572;19;20134;-80
2023/06/06 06:00:57;;;;;;;8.30;2.88;;;19.20;99.90;;;;;;7385988;19;20139;-80
2023/06/06 06:03:24;;;;;;;3.67;2.65;;;19.30;99.90;;;;;;7389350;19;20127;-80
2023/06/06 06:06:02;;;;;;;4.55;2.58;;;19.40;99.90;;;;;;7389390;19;20142;-81
2023/06/06 06:08:29;;;;;;;5.05;2.55;;;19.50;99.90;;;;;;7389662;19;20874;-80
2023/06/06 06:10:55;;;;;;;3.88;2.70;;;19.60;99.90;;;;;;7389333;19;20154;-81
2023/06/06 06:13:21;;;;;;;4.28;2.90;;;20.20;99.90;;;;;;7387845;19;20169;-82
2023/06/06 06:15:47;;;;;;;4.07;2.55;;;21.30;99.90;;;;;;7389367;19;20131;-82
2023/06/06 06:18:13;;;;;;;3.45;2.42;;;21.30;99.90;;;;;;7389142;19;20158;-81
2023/06/06 06:20:39;;;;;;;3.75;2.83;;;21.30;99.90;;;;;;7387401;19;20153;-81
2023/06/06 06:23:04;;;;;;;3.60;2.53;;;21.80;99.90;;;;;;7388153;19;20139;-81
2023/06/06 06:25:31;;;;;;;3.83;2.60;;;21.70;99.90;;;;;;7389527;19;20130;-80
2023/06/06 06:27:58;;;;;;;3.33;2.33;;;22.00;99.90;;;;;;7389629;19;20149;-81
2023/06/06 06:30:25;;;;;;;3.15;2.25;;;23.80;99.90;;;;;;7388574;19;20586;-82
2023/06/06 06:32:51;;;;;;;5.03;2.70;;;25.30;99.90;;;;;;7387926;19;20154;-85
2023/06/06 06:35:17;;;;;;;3.65;2.47;;;26.10;98.70;;;;;;7389570;19;20164;-82
2023/06/06 06:37:42;;;;;;;4.43;2.40;;;26.60;97.40;;;;;;7390433;19;20744;-82
2023/06/06 06:40:09;;;;;;;3.63;2.45;;;27.00;96.30;;;;;;7386548;19;20609;-81
2023/06/06 06:42:40;;;;;;;2.40;2.15;;;27.30;95.60;;;;;;7388093;19;20505;-83
2023/06/06 06:45:12;;;;;;;2.42;2.22;;;27.90;94.60;;;;;;7389103;19;20135;-82
2023/06/06 06:47:38;;;;;;;3.15;2.55;;;28.10;93.30;;;;;;7388755;19;20230;-81
2023/06/06 06:50:06;;;;;;;4.57;2.28;;;28.00;93.10;;;;;;7388421;19;20210;-83
2023/06/06 06:52:36;;;;;;;4.97;2.65;;;28.10;92.80;;;;;;7392571;19;20134;-84
2023/06/06 06:55:04;;;;;;;2.33;2.05;;;28.50;92.00;;;;;;7391377;19;20199;-84
2023/06/06 06:57:30;;;;;;;3.42;2.20;;;29.00;91.20;;;;;;7389176;19;20134;-84
2023/06/06 07:00:00;;;;;;;5.68;2.30;;;29.20;90.40;;;;;;7386387;19;20139;-82
2023/06/06 07:02:27;;;;;;;3.35;2.60;;;28.80;90.00;;;;;;7390650;19;20203;-82
2023/06/06 07:04:54;;;;;;;4.05;2.33;;;28.30;90.30;;;;;;7387441;19;20146;-82
2023/06/06 07:07:20;;;;;;;3.30;2.60;;;28.10;90.10;;;;;;7390614;19;20154;-81
2023/06/06 07:09:46;;;;;;;4.70;2.60;;;27.40;90.40;;;;;;7389384;19;20563;-81
2023/06/06 07:12:13;;;;;;;3.28;2.22;;;27.10;91.00;;;;;;7389983;19;20146;-79
2023/06/06 07:14:39;;;;;;;3.17;2.33;;;26.90;91.00;;;;;;7387862;19;20143;-80
2023/06/06 07:17:07;;;;;;;4.18;2.53;;;26.80;91.30;;;;;;7388127;19;20210;-80
2023/06/06 07:19:33;;;;;;;3.38;2.60;;;26.40;91.40;;;;;;7387039;19;20150;-81
2023/06/06 07:21:59;;;;;;;3.25;2.45;;;26.30;92.00;;;;;;7388322;19;20142;-82
2023/06/06 07:24:25;;;;;;;4.10;2.63;;;26.10;91.80;;;;;;7390006;19;20139;-82
2023/06/06 07:26:51;;;;;;;3.30;2.15;;;26.10;92.20;;;;;;7387279;19;20602;-81
2023/06/06 07:29:17;;;;;;;4.95;3.08;;;26.10;92.10;;;;;;7387558;19;20146;-80
2023/06/06 07:31:43;;;;;;;2.88;2.15;;;26.50;91.90;;;;;;7388081;19;20134;-80
2023/06/06 07:34:09;;;;;;;3.92;3.00;;;26.30;91.10;;;;;;7388029;19;20171;-81
2023/06/06 07:36:38;;;;;;;5.70;3.33;;;26.30;91.30;;;;;;7386821;19;20142;-80
2023/06/06 07:39:04;;;;;;;2.90;2.13;;;26.90;90.60;;;;;;7387772;19;20606;-79
2023/06/06 07:41:30;;;;;;;2.97;2.20;;;27.00;90.00;;;;;;7381343;19;20157;-78
2023/06/06 07:43:57;;;;;;;2.95;2.05;;;26.80;90.60;;;;;;7384351;19;20146;-80
2023/06/06 07:46:24;;;;;;;4.45;3.45;;;26.80;90.60;;;;;;7387490;19;20146;-82
2023/06/06 07:48:51;;;;;;;3.55;2.20;;;26.60;90.50;;;;;;7389175;19;20301;-80
2023/06/06 07:51:17;;;;;;;3.97;2.25;;;26.60;90.20;;;;;;7385993;19;20138;-81
2023/06/06 07:53:46;;;;;;;2.08;1.88;;;26.30;90.20;;;;;;7386594;19;20696;-82
2023/06/06 07:56:16;;;;;;;2.95;1.98;;;26.30;90.20;;;;;;7386753;19;20263;-81
2023/06/06 07:58:52;;;;;;;2.53;1.88;;;26.00;90.50;;;;;;7389008;19;20610;-82
2023/06/06 08:01:19;;;;;;;2.35;1.77;;;26.10;90.90;;;;;;7381044;19;20141;-81
2023/06/06 08:03:54;;;;;;;2.88;2.35;;;26.30;90.90;;;;;;7386409;19;20618;-83
2023/06/06 08:06:23;;;;;;;2.33;2.00;;;26.40;90.00;;;;;;7386192;19;20156;-81
2023/06/06 08:08:49;;;;;;;4.10;2.15;;;26.30;90.20;;;;;;7390484;19;20145;-82
2023/06/06 08:11:17;;;;;;;4.90;2.60;;;26.20;90.60;;;;;;7385974;19;20167;-80
2023/06/06 08:13:43;;;;;;;2.80;2.33;;;25.90;91.30;;;;;;7388954;19;20169;-82
2023/06/06 08:16:09;;;;;;;4.07;2.50;;;25.80;91.60;;;;;;7390125;19;20138;-83
2023/06/06 08:18:35;;;;;;;4.82;2.30;;;25.80;91.60;;;;;;7393283;19;20156;-80
2023/06/06 08:21:01;;;;;;;2.25;2.05;;;26.00;91.60;;;;;;7390107;19;20146;-81
2023/06/06 08:23:28;;;;;;;2.88;2.40;;;26.00;91.50;;;;;;7397064;19;20150;-80
2023/06/06 08:25:55;;;;;;;3.00;2.33;;;25.90;91.80;;;;;;7393010;19;20149;-80
2023/06/06 08:28:30;;;;;;;3.47;2.00;;;26.10;91.90;;;;;;7392321;19;20161;-79
2023/06/06 08:30:56;;;;;;;2.80;2.05;;;26.40;91.60;;;;;;7389790;19;20138;-81
2023/06/06 08:33:21;;;;;;;2.67;1.95;;;26.70;91.10;;;;;;7392891;19;20685;-80
2023/06/06 08:35:47;;;;;;;2.53;2.00;;;26.40;91.00;;;;;;7392464;19;20222;-80
2023/06/06 08:38:14;;;;;;;3.03;2.28;;;26.00;91.30;;;;;;7391936;19;20531;-80
2023/06/06 08:40:40;;;;;;;2.63;2.33;;;25.60;91.80;;;;;;7392877;19;20139;-81
2023/06/06 08:43:13;;;;;;;5.65;2.47;;;25.50;92.00;;;;;;7389811;19;20684;-80
2023/06/06 08:45:56;;;;;;;2.70;1.92;;;25.70;91.90;;;;;;7391854;19;20250;-80
2023/06/06 08:48:28;;;;;;;2.85;2.25;;;25.70;92.00;;;;;;7393361;19;20161;-81
2023/06/06 08:50:56;;;;;;;3.10;2.28;;;25.30;92.00;;;;;;7394038;19;20131;-81
2023/06/06 08:53:23;;;;;;;3.15;2.33;;;25.30;92.10;;;;;;7392517;19;20139;-82
2023/06/06 08:55:50;;;;;;;3.78;2.10;;;25.30;92.10;;;;;;7392891;19;20151;-80
2023/06/06 08:58:16;;;;;;;3.22;2.30;;;25.60;92.20;;;;;;7389409;19;20214;-81
2023/06/06 09:00:42;;;;;;;2.90;2.35;;;25.90;92.20;;;;;;7391517;19;20146;-82
2023/06/06 09:03:12;;;;;;;2.90;2.08;;;25.80;92.00;;;;;;7390714;19;20246;-81
2023/06/06 09:05:39;;;;;;;7.55;2.75;;;25.70;92.20;;;;;;7392721;19;20244;-84
2023/06/06 09:08:06;;;;;;;3.65;2.75;;;25.50;92.30;;;;;;7393081;19;20245;-84
2023/06/06 09:10:32;;;;;;;2.45;2.08;;;25.50;93.20;;;;;;7394274;19;20150;-83
2023/06/06 09:12:58;;;;;;;3.50;2.10;;;25.50;92.40;;;;;;7391649;19;20142;-82
2023/06/06 09:15:25;;;;;;;3.92;2.15;;;25.50;92.80;;;;;;7392616;19;20154;-82
2023/06/06 09:17:55;;;;;;;4.30;2.40;;;25.60;92.90;;;;;;7392156;19;20131;-82
2023/06/06 09:20:22;;;;;;;2.75;2.30;;;25.90;92.30;;;;;;7391301;19;20155;-83
2023/06/06 09:22:49;;;;;;;3.53;2.28;;;25.70;91.60;;;;;;7391932;19;20615;-81
2023/06/06 09:25:20;;;;;;;2.72;2.42;;;25.70;91.50;;;;;;7393078;19;20186;-81
2023/06/06 09:27:48;;;;;;;3.28;2.40;;;25.40;91.20;;;;;;7389934;19;20482;-82
2023/06/06 09:30:25;;;;;;;3.60;2.25;;;25.00;91.10;;;;;;7393791;19;20143;-82
2023/06/06 09:33:00;;;;;;;2.78;2.17;;;24.90;91.40;;;;;;7393305;19;20141;-81
2023/06/06 09:35:31;;;;;;;3.63;2.67;;;24.80;91.50;;;;;;7393442;19;20157;-84
2023/06/06 09:38:04;;;;;;;2.42;1.90;;;24.80;91.80;;;;;;7395829;19;20606;-83
2023/06/06 09:40:30;;;;;;;2.88;1.90;;;24.70;91.90;;;;;;7397452;19;20135;-82
2023/06/06 09:42:58;;;;;;;4.43;2.45;;;24.80;92.00;;;;;;7403282;19;20161;-83
2023/06/06 09:45:24;;;;;;;4.40;2.90;;;24.90;90.90;;;;;;7398431;19;20153;-85
2023/06/06 09:47:50;;;;;;;4.22;2.50;;;24.90;90.20;;;;;;7400244;19;20232;-82
2023/06/06 09:50:19;;;;;;;2.15;1.80;;;24.70;90.00;;;;;;7410688;19;20162;-82
2023/06/06 09:52:45;;;;;;;2.40;2.15;;;24.80;90.10;;;;;;7424592;19;20591;-84
2023/06/06 09:55:13;;;;;;;2.67;2.25;;;24.70;90.10;;;;;;7425728;19;20144;-87
2023/06/06 09:57:41;;;;;;;3.05;2.50;;;24.60;90.30;;;;;;7426572;19;20135;-84
2023/06/06 10:00:15;;;;;;;3.22;2.10;;;24.60;90.60;;;;;;7425103;19;20138;-83
2023/06/06 10:02:47;;;;;;;3.55;2.17;;;24.70;90.20;;;;;;7425879;19;20141;-84
2023/06/06 10:05:15;;;;;;;4.13;2.67;;;24.90;90.10;;;;;;7425339;19;20149;-85
2023/06/06 10:07:45;;;;;;;2.25;2.03;;;24.80;90.30;;;;;;7423183;19;20163;-83
2023/06/06 10:10:13;;;;;;;3.55;2.40;;;24.70;90.50;;;;;;7421110;19;20141;-86
2023/06/06 10:12:40;;;;;;;3.47;2.13;;;24.60;90.90;;;;;;7403476;19;20147;-83
2023/06/06 10:15:09;;;;;;;4.20;2.20;;;24.60;90.80;;;;;;7401727;19;20157;-82
2023/06/06 10:17:38;;;;;;;3.85;2.75;;;24.60;90.70;;;;;;7400146;19;20143;-82
2023/06/06 10:20:06;;;;;;;2.92;2.10;;;24.50;90.80;;;;;;7399963;19;20135;-82
2023/06/06 10:22:35;;;;;;;2.80;2.17;;;24.50;90.60;;;;;;7398169;19;20147;-80
2023/06/06 10:25:06;;;;;;;7.32;5.10;;;24.60;91.10;;;;;;7398824;19;20567;-81
2023/06/06 10:28:17;;;;;;;3.65;2.40;;;24.90;91.20;;;;;;7400222;19;20157;-81
2023/06/06 10:30:43;;;;;;;2.50;2.20;;;25.20;90.80;;;;;;7407032;19;20142;-81
2023/06/06 10:33:27;;;;;;;3.40;2.20;;;25.30;90.60;;;;;;7394587;19;20157;-80
2023/06/06 10:35:59;;;;;;;3.22;2.90;;;25.30;90.30;;;;;;7393585;19;20542;-81
2023/06/06 10:38:26;;;;;;;5.72;2.55;;;25.10;90.00;;;;;;7392274;19;20583;-81
2023/06/06 10:40:58;;;;;;;2.72;2.20;;;24.90;90.00;;;;;;7388981;19;20134;-82
2023/06/06 10:43:32;;;;;;;2.47;2.20;;;24.80;90.40;;;;;;7393111;19;20469;-82
2023/06/06 10:45:59;;;;;;;3.33;2.50;;;24.90;90.40;;;;;;7391834;19;20146;-81
2023/06/06 10:48:42;;;;;;;4.35;2.63;;;24.90;90.00;;;;;;7389882;19;20243;-81
2023/06/06 10:51:28;;;;;;;3.45;2.53;;;25.00;90.30;;;;;;7386757;19;20134;-81
2023/06/06 10:54:16;;;;;;;2.58;2.38;;;25.00;89.90;;;;;;7391310;19;20131;-81
2023/06/06 10:56:52;;;;;;;3.28;2.33;;;25.00;89.60;;;;;;7390829;19;20206;-80
2023/06/06 10:59:31;;;;;;;4.03;2.38;;;24.90;88.80;;;;;;7387929;19;20150;-80
2023/06/06 11:01:58;;;;;;;2.53;2.30;;;25.00;87.50;;;;;;7387331;19;20139;-81
2023/06/06 11:04:29;;;;;;;3.67;2.85;;;25.10;88.40;;;;;;7392596;19;20143;-81
2023/06/06 11:07:00;;;;;;;3.63;2.67;;;25.40;87.20;;;;;;7389900;19;20168;-81
2023/06/06 11:09:31;;;;;;;3.75;2.53;;;25.50;86.00;;;;;;7388987;19;20570;-82
2023/06/06 11:12:12;;;;;;;3.45;2.53;;;25.60;87.20;;;;;;7390744;19;20138;-80
2023/06/06 11:15:04;;;;;;;3.67;2.40;;;25.60;86.60;;;;;;7389674;19;20177;-81
2023/06/06 11:17:49;;;;;;;2.72;2.33;;;25.50;84.50;;;;;;7389753;19;20135;-82
2023/06/06 11:20:27;;;;;;;2.33;2.05;;;25.40;83.20;;;;;;7388639;19;20173;-81
2023/06/06 11:23:03;;;;;;;3.45;2.40;;;25.30;83.80;;;;;;7390214;19;20145;-81
2023/06/06 11:25:36;;;;;;;2.90;2.40;;;25.30;84.30;;;;;;7388103;19;20540;-82
2023/06/06 11:28:03;;;;;;;3.10;2.38;;;25.40;85.00;;;;;;7388040;19;20653;-83
2023/06/06 11:30:36;;;;;;;3.47;2.63;;;25.30;86.00;;;;;;7389856;19;20131;-81
2023/06/06 11:33:11;;;;;;;4.07;2.58;;;25.30;87.90;;;;;;7387449;19;20150;-82
2023/06/06 11:35:38;;;;;;;5.22;2.33;;;25.60;87.70;;;;;;7389155;19;20141;-86
2023/06/06 11:38:05;;;;;;;2.70;2.47;;;25.60;86.10;;;;;;7389485;19;20168;-84
2023/06/06 11:40:30;;;;;;;2.30;2.10;;;25.80;85.90;;;;;;7386398;19;20139;-82
2023/06/06 11:42:58;;;;;;;4.43;3.58;;;25.70;86.30;;;;;;7385293;19;20146;-81
2023/06/06 11:45:24;;;;;;;4.07;2.50;;;25.70;86.70;;;;;;7386491;19;20142;-82
2023/06/06 11:47:51;;;;;;;7.85;2.55;;;26.10;85.00;;;;;;7390234;19;20210;-84
2023/06/06 11:50:27;;;;;;;3.30;2.60;;;26.10;84.60;;;;;;7393974;19;20150;-84
2023/06/06 11:52:53;;;;;;;3.63;2.40;;;25.90;85.10;;;;;;7404518;19;20142;-83
2023/06/06 11:55:19;;;;;;;5.00;2.55;;;25.60;86.20;;;;;;7403939;19;20126;-81
2023/06/06 11:57:45;;;;;;;3.03;2.40;;;25.60;86.20;;;;;;7402108;19;20528;-80
2023/06/06 12:00:17;;;;;;;4.45;2.38;;;25.80;85.10;;;;;;7401706;19;20154;-83
2023/06/06 12:02:48;;;;;;;2.88;2.00;;;25.80;78.50;;;;;;7402824;19;20150;-85
2023/06/06 12:05:25;;;;;;;2.40;2.17;;;25.60;75.90;;;;;;7402102;19;20146;-84
2023/06/06 12:08:03;;;;;;;3.40;2.10;;;25.60;78.80;;;;;;7402973;19;20138;-85
2023/06/06 12:10:30;;;;;;;4.40;2.42;;;25.60;79.90;;;;;;7401993;19;20162;-83
2023/06/06 12:12:57;;;;;;;2.60;1.63;;;25.70;80.60;;;;;;7401789;19;20134;-85
2023/06/06 12:15:28;;;;;;;3.25;2.20;;;25.70;80.70;;;;;;7402169;19;20246;-82
2023/06/06 12:18:09;;;;;;;3.38;2.63;;;25.70;81.40;;;;;;7400364;19;20645;-82
2023/06/06 12:20:36;;;;;;;4.05;2.53;;;25.80;81.60;;;;;;7399299;19;20150;-83
2023/06/06 12:23:01;;;;;;;3.38;2.53;;;26.00;80.40;;;;;;7400966;19;20142;-81
2023/06/06 12:25:28;;;;;;;3.15;2.47;;;26.00;80.50;;;;;;7399638;19;20165;-82
2023/06/06 12:28:06;;;;;;;3.20;2.42;;;25.80;80.20;;;;;;7400142;19;20614;-83
2023/06/06 12:30:32;;;;;;;2.65;2.38;;;25.50;80.40;;;;;;7400648;19;20142;-83
2023/06/06 12:33:02;;;;;;;4.18;3.00;;;25.40;80.50;;;;;;7399320;19;20149;-84
2023/06/06 12:35:28;;;;;;;4.45;2.58;;;25.50;80.80;;;;;;7400050;19;20162;-85
2023/06/06 12:37:55;;;;;;;2.45;2.10;;;25.60;81.00;;;;;;7403817;19;20186;-82
2023/06/06 12:40:33;;;;;;;3.72;2.65;;;25.70;81.40;;;;;;7399874;19;20151;-80
2023/06/06 12:43:03;;;;;;;3.15;2.60;;;25.70;82.00;;;;;;7399876;19;20204;-83
2023/06/06 12:45:28;;;;;;;6.60;3.70;;;25.80;81.40;;;;;;7401546;19;20142;-81
2023/06/06 12:47:56;;;;;;;4.80;3.78;;;25.70;82.20;;;;;;7399311;19;20195;-83
2023/06/06 12:50:23;;;;;;;3.90;2.58;;;25.70;82.60;;;;;;7398066;19;20163;-84
2023/06/06 12:52:50;;;;;;;4.35;2.50;;;25.90;82.70;;;;;;7401861;19;20134;-83
2023/06/06 12:55:19;;;;;;;3.00;2.58;;;26.00;81.90;;;;;;7399069;19;20155;-83